Time;durP1;ratioP1;P1;durP2;ratioP2;P2;SDS_P1;SDS_P2;PMS_P1;PMS_P2;Temp;Humidity;BMP_temperature;BMP_pressure;BME280_temperature;BME280_humidity;BME280_pressure;Samples;Min_cycle;Max_cycle;Signal;HPM_P1;HPM_P2
2022/06/09 00:00:24;;;;;;;;;;;14.80;99.90;;;;;;10267626;22;84992;-53
2022/06/09 00:05:24;;;;;;;;;;;14.80;99.90;;;;;;10269714;28;84161;-49
2022/06/09 00:10:27;;;;;;;;;;;14.80;99.90;;;;;;10285637;28;84198;-48
2022/06/09 00:15:28;;;;;;;;;;;14.80;99.90;;;;;;10246249;28;84237;-50
2022/06/09 00:20:28;;;;;;;;;;;14.80;99.90;;;;;;10243766;28;84964;-50
2022/06/09 00:25:29;;;;;;;;;;;14.80;99.90;;;;;;10265619;28;84374;-50
2022/06/09 00:30:30;;;;;;;;;;;14.70;99.90;;;;;;10244289;28;84272;-53
2022/06/09 00:35:30;;;;;;;;;;;14.70;99.90;;;;;;10245837;28;84969;-55
2022/06/09 00:40:31;;;;;;;;;;;14.70;99.90;;;;;;10244364;28;84892;-49
2022/06/09 00:45:36;;;;;;;;;;;14.70;99.90;;;;;;10266124;28;84941;-49
2022/06/09 00:50:38;;;;;;;;;;;14.70;99.90;;;;;;10244136;28;84347;-52
2022/06/09 00:55:40;;;;;;;;;;;14.80;99.90;;;;;;10281529;28;84953;-50
2022/06/09 01:00:49;;;;;;;;;;;14.80;99.90;;;;;;10287139;28;84141;-51
2022/06/09 01:05:52;;;;;;;;;;;14.80;99.90;;;;;;10251439;28;84684;-51
2022/06/09 01:10:53;;;;;;;;;;;14.80;99.90;;;;;;10247876;28;84157;-51
2022/06/09 01:16:07;;;;;;;;;;;14.70;99.90;;;;;;10289962;28;84118;-50
2022/06/09 01:21:16;;;;;;;;;;;14.80;99.90;;;;;;10288866;28;84947;-53
2022/06/09 01:26:20;;;;;;;;;;;14.80;99.90;;;;;;10250343;28;84098;-49
2022/06/09 01:31:39;;;;;;;;;;;14.80;99.90;;;;;;10252596;28;84068;-53
2022/06/09 01:36:45;;;;;;;;;;;14.70;99.90;;;;;;10261948;28;84938;-51
2022/06/09 01:41:47;;;;;;;;;;;14.80;99.90;;;;;;10255819;28;84951;-49
2022/06/09 01:46:48;;;;;;;;;;;14.80;99.90;;;;;;10290325;28;83992;-48
2022/06/09 01:51:51;;;;;;;;;;;14.80;99.90;;;;;;10281266;28;84047;-48
2022/06/09 01:57:09;;;;;;;;;;;14.80;99.90;;;;;;10249972;28;84833;-49
2022/06/09 02:02:12;;;;;;;;;;;14.80;99.90;;;;;;10246757;28;86288;-48
2022/06/09 02:07:14;;;;;;;;;;;14.80;99.90;;;;;;10287716;28;84137;-49
2022/06/09 02:12:16;;;;;;;;;;;14.80;99.90;;;;;;10288490;28;85197;-48
2022/06/09 02:17:18;;;;;;;;;;;14.80;99.90;;;;;;10249271;28;85021;-51
2022/06/09 02:22:18;;;;;;;;;;;14.70;99.90;;;;;;10248194;28;84953;-50
2022/06/09 02:27:19;;;;;;;;;;;14.70;99.90;;;;;;10287160;28;84103;-47
2022/06/09 02:32:19;;;;;;;;;;;14.70;99.90;;;;;;10250138;28;84290;-51
2022/06/09 02:37:20;;;;;;;;;;;14.60;99.90;;;;;;10264819;28;84472;-52
2022/06/09 02:42:20;;;;;;;;;;;14.60;99.90;;;;;;10256476;28;84954;-51
2022/06/09 02:47:21;;;;;;;;;;;14.50;99.90;;;;;;10287704;28;84439;-47
2022/06/09 02:52:22;;;;;;;;;;;14.50;99.90;;;;;;10276223;28;85044;-47
2022/06/09 02:57:26;;;;;;;;;;;14.50;99.90;;;;;;10258094;28;84410;-49
2022/06/09 03:02:26;;;;;;;;;;;14.50;99.90;;;;;;10247133;28;84099;-53
2022/06/09 03:07:27;;;;;;;;;;;14.40;99.90;;;;;;10247780;28;84100;-49
2022/06/09 03:12:27;;;;;;;;;;;14.50;99.90;;;;;;10243692;28;84186;-50
2022/06/09 03:17:28;;;;;;;;;;;14.50;99.90;;;;;;10254477;28;86086;-51
2022/06/09 03:22:30;;;;;;;;;;;14.50;99.90;;;;;;10291508;28;84831;-54
2022/06/09 03:27:30;;;;;;;;;;;14.40;99.90;;;;;;10294892;28;84304;-49
2022/06/09 03:32:31;;;;;;;;;;;14.40;99.90;;;;;;10300055;28;84172;-48
2022/06/09 03:37:31;;;;;;;;;;;14.40;99.90;;;;;;10259584;28;84212;-53
2022/06/09 03:42:32;;;;;;;;;;;14.40;99.90;;;;;;10252742;28;84912;-45
2022/06/09 03:47:32;;;;;;;;;;;14.40;99.90;;;;;;10286931;28;85054;-50
2022/06/09 03:52:33;;;;;;;;;;;14.50;99.90;;;;;;10283065;28;85043;-48
2022/06/09 03:57:33;;;;;;;;;;;14.60;99.90;;;;;;10204962;28;84847;-48
2022/06/09 04:02:34;;;;;;;;;;;14.60;99.90;;;;;;10202696;28;87283;-49
2022/06/09 04:07:34;;;;;;;;;;;14.70;99.90;;;;;;10284719;28;84646;-49
2022/06/09 04:12:35;;;;;;;;;;;14.70;99.90;;;;;;10285362;28;84668;-49
2022/06/09 04:17:36;;;;;;;;;;;14.80;99.90;;;;;;10244888;28;84790;-48
2022/06/09 04:22:36;;;;;;;;;;;14.80;99.90;;;;;;10226532;28;85973;-51
2022/06/09 04:27:37;;;;;;;;;;;14.90;99.90;;;;;;10271996;28;85427;-51
2022/06/09 04:32:38;;;;;;;;;;;14.80;99.90;;;;;;10265408;28;84087;-55
2022/06/09 04:38:00;;;;;;;;;;;14.90;99.90;;;;;;10261446;28;84664;-50
2022/06/09 04:43:01;;;;;;;;;;;15.00;99.90;;;;;;10262252;28;83967;-49
2022/06/09 04:48:02;;;;;;;;;;;15.00;99.90;;;;;;10259347;28;84551;-49
2022/06/09 04:53:03;;;;;;;;;;;15.00;99.90;;;;;;10245278;28;84140;-50
2022/06/09 04:58:04;;;;;;;;;;;15.00;99.90;;;;;;10245627;28;84303;-48
2022/06/09 05:03:05;;;;;;;;;;;15.00;99.90;;;;;;10257381;28;84350;-48
2022/06/09 05:08:06;;;;;;;;;;;15.10;99.90;;;;;;10208974;28;85820;-51
2022/06/09 05:13:06;;;;;;;;;;;15.30;99.90;;;;;;10222074;28;84941;-50
2022/06/09 05:18:07;;;;;;;;;;;15.40;99.90;;;;;;10220876;28;84894;-51
2022/06/09 05:23:08;;;;;;;;;;;15.40;99.90;;;;;;10222013;28;84547;-51
2022/06/09 05:28:09;;;;;;;;;;;15.40;99.90;;;;;;10243399;28;84845;-54
2022/06/09 05:33:09;;;;;;;;;;;15.40;99.90;;;;;;10245808;28;84908;-53
2022/06/09 05:48:49;;;;;;;;;;;15.60;99.90;;;;;;10228216;28;84994;-50
2022/06/09 05:53:49;;;;;;;;;;;15.70;99.90;;;;;;10226111;28;87220;-50
2022/06/09 05:58:50;;;;;;;;;;;15.70;99.90;;;;;;10227156;28;85924;-48
2022/06/09 06:03:50;;;;;;;;;;;15.90;99.90;;;;;;10295038;22;84841;-54
2022/06/09 06:08:51;;;;;;;;;;;16.00;99.90;;;;;;10271414;28;84169;-53
2022/06/09 06:13:54;;;;;;;;;;;16.10;99.90;;;;;;10270891;28;84137;-55
2022/06/09 06:18:55;;;;;;;;;;;16.10;99.90;;;;;;10269914;28;84140;-55
2022/06/09 06:23:56;;;;;;;;;;;16.10;99.90;;;;;;10271183;28;84832;-58
2022/06/09 06:28:56;;;;;;;;;;;16.30;99.90;;;;;;10264544;28;84892;-57
2022/06/09 06:33:58;;;;;;;;;;;16.60;99.90;;;;;;10249371;28;85155;-54
2022/06/09 06:38:58;;;;;;;;;;;16.70;99.90;;;;;;10238931;28;85839;-56
2022/06/09 06:43:59;;;;;;;;;;;16.70;99.90;;;;;;10249320;28;84248;-60
2022/06/09 06:49:00;;;;;;;;;;;17.00;99.90;;;;;;10250777;28;84123;-61
2022/06/09 06:54:00;;;;;;;;;;;17.20;99.90;;;;;;10250928;28;84877;-61
2022/06/09 06:59:01;;;;;;;;;;;17.30;99.90;;;;;;10242553;28;85609;-57
2022/06/09 07:04:03;;;;;;;;;;;17.70;99.90;;;;;;10248248;28;84372;-60
2022/06/09 07:09:03;;;;;;;;;;;17.90;1.00;;;;;;10251539;28;84338;-58
2022/06/09 07:14:04;;;;;;;;;;;18.20;1.00;;;;;;10249946;28;85048;-51
2022/06/09 07:19:05;;;;;;;;;;;18.30;1.00;;;;;;10252188;28;84143;-55
2022/06/09 07:24:06;;;;;;;;;;;18.60;1.00;;;;;;10250308;28;84926;-51
2022/06/09 07:29:06;;;;;;;;;;;18.80;1.00;;;;;;10249393;28;83987;-52
2022/06/09 07:34:07;;;;;;;;;;;18.70;1.00;;;;;;10249005;28;84236;-52
2022/06/09 07:39:07;;;;;;;;;;;18.90;1.00;;;;;;10248818;28;84920;-54
2022/06/09 07:44:08;;;;;;;;;;;19.60;1.00;;;;;;10247110;28;86040;-57
2022/06/09 07:49:09;;;;;;;;;;;19.70;1.00;;;;;;10248153;28;84093;-54
2022/06/09 07:54:10;;;;;;;;;;;19.50;1.00;;;;;;10248084;28;84974;-55
2022/06/09 07:59:11;;;;;;;;;;;19.40;1.00;;;;;;10248609;28;84857;-57
2022/06/09 08:04:12;;;;;;;;;;;19.70;1.00;;;;;;10248430;28;84859;-56
2022/06/09 08:09:13;;;;;;;;;;;20.10;1.00;;;;;;10247670;28;84769;-56
2022/06/09 08:14:14;;;;;;;;;;;20.70;1.00;;;;;;10247402;28;84167;-55
2022/06/09 08:19:15;;;;;;;;;;;20.80;99.90;;;;;;10247344;28;84165;-57
2022/06/09 08:24:16;;;;;;;;;;;21.10;99.90;;;;;;10247405;28;84874;-55
2022/06/09 08:29:16;;;;;;;;;;;21.00;99.90;;;;;;10247276;28;84970;-56
2022/06/09 08:34:17;;;;;;;;;;;20.90;99.90;;;;;;10248072;28;84148;-53
2022/06/09 08:39:18;;;;;;;;;;;20.60;99.90;;;;;;10247779;28;84875;-55
2022/06/09 08:44:31;;;;;;;;;;;21.40;99.90;;;;;;10247986;28;85154;-58
2022/06/09 08:49:37;;;;;;;;;;;22.10;1.00;;;;;;10247186;28;84286;-53
2022/06/09 08:54:38;;;;;;;;;;;22.50;1.00;;;;;;10246031;28;87131;-59
2022/06/09 08:59:40;;;;;;;;;;;22.10;99.90;;;;;;10247583;28;85167;-53
2022/06/09 09:04:43;;;;;;;;;;;22.30;99.90;;;;;;10247109;28;84113;-55
2022/06/09 09:09:45;;;;;;;;;;;22.20;99.90;;;;;;10246958;28;85764;-57
2022/06/09 09:14:47;;;;;;;;;;;21.50;1.00;;;;;;10247087;28;84191;-57
2022/06/09 09:19:52;;;;;;;;;;;21.30;1.00;;;;;;10245882;28;85027;-58
2022/06/09 09:24:55;;;;;;;;;;;22.10;99.90;;;;;;10254170;28;84908;-54
2022/06/09 09:30:05;;;;;;;;;;;23.00;99.90;;;;;;10253813;28;84964;-57
2022/06/09 09:35:08;;;;;;;;;;;23.20;99.90;;;;;;10253887;28;84943;-61
2022/06/09 09:40:12;;;;;;;;;;;22.70;15.10;;;;;;10253990;28;84037;-56
2022/06/09 09:45:15;;;;;;;;;;;23.40;99.90;;;;;;10255576;28;84793;-59
2022/06/09 09:50:19;;;;;;;;;;;24.60;1.00;;;;;;10255208;28;84130;-54
2022/06/09 09:55:29;;;;;;;;;;;25.60;1.00;;;;;;10254877;28;85047;-57
2022/06/09 10:00:29;;;;;;;;;;;25.30;1.00;;;;;;10254941;28;84098;-57
2022/06/09 10:10:58;;;;;;;;;;;24.60;1.00;;;;;;10252572;28;84906;-54
2022/06/09 10:15:58;;;;;;;;;;;25.10;99.90;;;;;;10249963;28;85021;-57
2022/06/09 10:21:07;;;;;;;;;;;26.20;99.90;;;;;;10251373;28;84132;-55
2022/06/09 10:26:11;;;;;;;;;;;27.00;1.00;;;;;;10251766;28;85056;-59
2022/06/09 10:31:18;;;;;;;;;;;26.90;1.00;;;;;;10251309;28;84181;-58
2022/06/09 10:36:21;;;;;;;;;;;27.40;1.00;;;;;;10251443;28;84124;-61
2022/06/09 10:41:36;;;;;;;;;;;26.60;1.00;;;;;;10250578;28;85847;-58
2022/06/09 10:57:56;;;;;;;;;;;28.80;1.00;;;;;;10250102;28;84142;-60
2022/06/09 11:02:59;;;;;;;;;;;28.70;99.90;;;;;;10250185;28;84825;-58
2022/06/09 11:08:07;;;;;;;;;;;28.20;1.00;;;;;;10250942;28;84962;-58
2022/06/09 11:13:26;;;;;;;;;;;26.20;1.00;;;;;;10251073;28;84751;-54
2022/06/09 11:18:42;;;;;;;;;;;24.00;99.90;;;;;;10249723;28;84180;-59
2022/06/09 11:23:49;;;;;;;;;;;23.20;1.00;;;;;;10250147;28;84897;-53
2022/06/09 11:29:00;;;;;;;;;;;22.90;12.10;;;;;;10249800;28;84120;-58
2022/06/09 11:34:19;;;;;;;;;;;22.40;1.00;;;;;;10249608;28;84732;-54
2022/06/09 11:39:20;;;;;;;;;;;22.80;99.90;;;;;;10248833;28;84155;-59
2022/06/09 11:44:30;;;;;;;;;;;22.70;1.00;;;;;;10248925;28;85095;-57
2022/06/09 11:49:38;;;;;;;;;;;22.60;1.00;;;;;;10249163;28;85141;-57
2022/06/09 11:55:00;;;;;;;;;;;22.50;99.90;;;;;;10248132;28;84180;-55
2022/06/09 12:00:04;;;;;;;;;;;22.20;1.00;;;;;;10249016;28;84266;-59
2022/06/09 12:05:08;;;;;;;;;;;21.70;1.00;;;;;;10345351;22;84135;-46
2022/06/09 12:10:28;;;;;;;;;;;21.90;1.00;;;;;;10329200;28;84329;-49
2022/06/09 12:15:32;;;;;;;;;;;22.20;5.00;;;;;;10288762;28;84903;-46
2022/06/09 12:20:39;;;;;;;;;;;22.30;94.60;;;;;;10288475;28;85011;-47
2022/06/09 12:25:39;;;;;;;;;;;23.20;99.90;;;;;;10286533;28;84981;-46
2022/06/09 12:31:00;;;;;;;;;;;22.60;99.90;;;;;;10288506;28;84281;-48
2022/06/09 12:36:03;;;;;;;;;;;22.50;99.90;;;;;;10287598;28;85103;-48
2022/06/09 12:41:09;;;;;;;;;;;23.70;1.00;;;;;;10287189;28;84205;-47
2022/06/09 12:46:23;;;;;;;;;;;23.80;1.00;;;;;;10287581;28;84904;-45
2022/06/09 12:51:27;;;;;;;;;;;23.00;99.90;;;;;;10287562;28;84074;-50
2022/06/09 12:56:33;;;;;;;;;;;22.20;1.00;;;;;;10290343;28;85283;-45
2022/06/09 13:01:33;;;;;;;;;;;23.20;99.90;;;;;;10293669;28;84308;-47
2022/06/09 13:06:35;;;;;;;;;;;24.00;1.00;;;;;;10294166;28;84143;-47
2022/06/09 13:17:00;;;;;;;;;;;22.40;1.00;;;;;;10294525;28;84274;-47
2022/06/09 13:22:03;;;;;;;;;;;22.20;1.00;;;;;;10292995;28;84168;-49
2022/06/09 13:27:09;;;;;;;;;;;22.10;99.90;;;;;;10294295;28;84836;-47
2022/06/09 13:32:10;;;;;;;;;;;22.20;1.00;;;;;;10293518;28;84359;-50
2022/06/09 13:37:14;;;;;;;;;;;22.30;4.00;;;;;;10293100;28;84106;-48
2022/06/09 13:42:21;;;;;;;;;;;23.00;1.00;;;;;;10292811;28;83953;-48
2022/06/09 13:47:27;;;;;;;;;;;24.00;1.00;;;;;;10292853;28;85305;-48
2022/06/09 13:52:32;;;;;;;;;;;24.30;1.00;;;;;;10291555;28;84012;-48
2022/06/09 13:57:36;;;;;;;;;;;25.30;99.90;;;;;;10291050;28;84385;-48
2022/06/09 14:02:43;;;;;;;;;;;24.40;1.00;;;;;;10288861;28;84635;-46
2022/06/09 14:07:44;;;;;;;;;;;23.30;99.90;;;;;;10289678;28;84843;-49
2022/06/09 14:12:44;;;;;;;;;;;22.20;1.00;;;;;;10290315;28;84033;-49
2022/06/09 14:17:48;;;;;;;;;;;22.60;1.00;;;;;;10290456;28;86986;-47
2022/06/09 14:22:48;;;;;;;;;;;22.60;95.80;;;;;;10289357;28;85908;-47
2022/06/09 14:27:49;;;;;;;;;;;22.40;1.00;;;;;;10291748;28;84322;-51
2022/06/09 14:32:50;;;;;;;;;;;21.90;1.00;;;;;;10291198;28;84152;-46
2022/06/09 14:37:50;;;;;;;;;;;21.70;1.00;;;;;;10291456;28;84869;-46
2022/06/09 14:42:51;;;;;;;;;;;21.80;1.00;;;;;;10290961;28;84371;-46
2022/06/09 14:47:52;;;;;;;;;;;22.10;1.00;;;;;;10290504;28;84267;-46
2022/06/09 14:52:53;;;;;;;;;;;22.40;1.00;;;;;;10290699;28;84096;-46
2022/06/09 14:57:53;;;;;;;;;;;22.10;1.00;;;;;;10290671;28;85056;-49
2022/06/09 15:02:57;;;;;;;;;;;22.00;1.00;;;;;;10289328;28;86007;-48
2022/06/09 15:07:59;;;;;;;;;;;22.00;1.00;;;;;;10274614;28;84971;-48
2022/06/09 15:13:00;;;;;;;;;;;22.00;99.90;;;;;;10272311;28;84293;-49
2022/06/09 15:18:00;;;;;;;;;;;22.40;1.00;;;;;;10272015;28;84285;-48
2022/06/09 15:23:01;;;;;;;;;;;22.20;1.00;;;;;;10291297;28;84925;-47
2022/06/09 15:28:02;;;;;;;;;;;22.00;1.00;;;;;;10289476;28;84784;-48
2022/06/09 15:33:04;;;;;;;;;;;22.00;1.00;;;;;;10307550;28;84978;-46
2022/06/09 15:38:05;;;;;;;;;;;22.00;1.00;;;;;;10306069;28;84628;-46
2022/06/09 15:43:06;;;;;;;;;;;22.10;1.00;;;;;;10310800;28;87361;-47
2022/06/09 15:48:09;;;;;;;;;;;22.40;1.00;;;;;;10302968;28;84987;-45
2022/06/09 15:53:09;;;;;;;;;;;22.30;99.90;;;;;;10290844;28;85040;-47
2022/06/09 15:58:11;;;;;;;;;;;22.40;99.90;;;;;;10284771;28;84899;-50
2022/06/09 16:03:12;;;;;;;;;;;22.10;1.00;;;;;;10270031;28;85636;-48
2022/06/09 16:08:13;;;;;;;;;;;21.50;1.00;;;;;;10286080;28;85407;-46
2022/06/09 16:13:14;;;;;;;;;;;21.20;1.00;;;;;;10293751;28;84545;-47
2022/06/09 16:18:17;;;;;;;;;;;21.00;1.00;;;;;;10294882;28;84481;-48
2022/06/09 16:23:18;;;;;;;;;;;20.90;1.00;;;;;;10291231;28;85026;-49
2022/06/09 16:28:20;;;;;;;;;;;20.80;99.90;;;;;;10292607;28;84240;-46
2022/06/09 16:33:22;;;;;;;;;;;20.80;1.00;;;;;;10294431;28;84963;-46
2022/06/09 16:38:22;;;;;;;;;;;21.00;99.90;;;;;;10295014;28;84218;-47
2022/06/09 16:43:23;;;;;;;;;;;21.00;1.00;;;;;;10295114;28;84961;-46
2022/06/09 16:48:23;;;;;;;;;;;20.80;1.00;;;;;;10292787;28;84271;-50
2022/06/09 16:53:24;;;;;;;;;;;20.60;1.00;;;;;;10294892;28;84280;-47
2022/06/09 16:58:26;;;;;;;;;;;20.60;99.90;;;;;;10281187;28;86098;-48
2022/06/09 17:03:27;;;;;;;;;;;20.60;1.00;;;;;;10291996;28;86708;-47
2022/06/09 17:08:31;;;;;;;;;;;20.60;1.00;;;;;;10294823;28;84676;-49
2022/06/09 17:13:32;;;;;;;;;;;20.60;1.00;;;;;;10295013;28;84924;-47
2022/06/09 17:18:32;;;;;;;;;;;20.80;1.00;;;;;;10292289;28;84249;-46
2022/06/09 17:23:34;;;;;;;;;;;20.70;1.00;;;;;;10289752;28;85064;-47
2022/06/09 17:28:35;;;;;;;;;;;20.70;1.00;;;;;;10294118;28;85372;-48
2022/06/09 17:33:36;;;;;;;;;;;20.70;1.00;;;;;;10304552;28;84226;-47
2022/06/09 17:38:36;;;;;;;;;;;20.60;1.00;;;;;;10301051;28;86167;-45
2022/06/09 17:43:38;;;;;;;;;;;20.50;99.90;;;;;;10309840;28;84181;-46
2022/06/09 17:48:38;;;;;;;;;;;20.50;1.00;;;;;;10305603;28;84826;-51
2022/06/09 17:53:39;;;;;;;;;;;20.40;1.00;;;;;;10307926;28;84130;-48
2022/06/09 17:58:41;;;;;;;;;;;20.20;8.60;;;;;;10317222;28;84728;-47
2022/06/09 18:03:41;;;;;;;;;;;20.10;99.90;;;;;;10340545;22;85159;-52
2022/06/09 18:08:42;;;;;;;;;;;20.00;99.90;;;;;;10306229;28;84250;-48
2022/06/09 18:13:43;;;;;;;;;;;19.90;99.90;;;;;;10311557;28;84325;-50
2022/06/09 18:18:44;;;;;;;;;;;19.70;99.90;;;;;;10314297;28;84395;-48
2022/06/09 18:23:46;;;;;;;;;;;19.60;99.90;;;;;;10312771;28;84480;-47
2022/06/09 18:28:47;;;;;;;;;;;19.60;99.90;;;;;;10304541;28;84070;-51
2022/06/09 18:33:48;;;;;;;;;;;19.60;99.90;;;;;;10314967;28;84973;-52
2022/06/09 18:38:49;;;;;;;;;;;19.60;99.90;;;;;;10311647;28;84432;-52
2022/06/09 18:43:50;;;;;;;;;;;19.50;99.90;;;;;;10297069;28;85029;-53
2022/06/09 18:48:50;;;;;;;;;;;19.20;1.00;;;;;;10313645;28;84752;-51
2022/06/09 18:53:51;;;;;;;;;;;19.30;1.00;;;;;;10311570;28;84772;-52
2022/06/09 18:58:52;;;;;;;;;;;19.20;1.00;;;;;;10311585;28;84953;-51
2022/06/09 19:03:53;;;;;;;;;;;19.00;1.00;;;;;;10314588;28;84125;-52
2022/06/09 19:08:53;;;;;;;;;;;19.00;1.00;;;;;;10313390;28;84031;-51
2022/06/09 19:13:54;;;;;;;;;;;18.90;1.00;;;;;;10279308;28;84267;-49
2022/06/09 19:18:54;;;;;;;;;;;18.80;1.00;;;;;;10287329;28;84221;-55
2022/06/09 19:23:55;;;;;;;;;;;18.90;1.00;;;;;;10287604;28;85295;-50
2022/06/09 19:28:58;;;;;;;;;;;18.70;1.00;;;;;;10285271;28;84618;-50
2022/06/09 19:33:59;;;;;;;;;;;18.70;1.00;;;;;;10283212;28;84505;-54
2022/06/09 19:39:02;;;;;;;;;;;18.60;1.00;;;;;;10282951;28;84303;-55
2022/06/09 19:44:03;;;;;;;;;;;18.50;1.00;;;;;;10289688;28;84990;-52
2022/06/09 19:49:05;;;;;;;;;;;18.40;1.00;;;;;;10287952;28;84337;-49
2022/06/09 19:54:06;;;;;;;;;;;18.20;1.00;;;;;;10281416;28;84907;-51
2022/06/09 19:59:11;;;;;;;;;;;18.10;1.00;;;;;;10277832;28;84382;-50
2022/06/09 20:04:11;;;;;;;;;;;18.00;1.00;;;;;;10285084;28;84322;-54
2022/06/09 20:09:12;;;;;;;;;;;17.90;1.00;;;;;;10285036;28;84779;-53
2022/06/09 20:14:12;;;;;;;;;;;17.80;1.00;;;;;;10283746;28;85235;-52
2022/06/09 20:19:13;;;;;;;;;;;17.70;1.00;;;;;;10282420;28;84292;-50
2022/06/09 20:24:14;;;;;;;;;;;17.70;4.60;;;;;;10283981;28;84383;-51
2022/06/09 20:29:14;;;;;;;;;;;17.60;47.00;;;;;;10282358;28;84869;-49
2022/06/09 20:34:15;;;;;;;;;;;17.50;95.80;;;;;;10278580;28;84332;-49
2022/06/09 20:39:16;;;;;;;;;;;17.50;99.90;;;;;;10306679;28;84154;-50
2022/06/09 20:44:16;;;;;;;;;;;17.50;99.90;;;;;;10257829;28;85179;-50
2022/06/09 20:49:17;;;;;;;;;;;17.40;99.90;;;;;;10288195;28;84149;-52
2022/06/09 20:54:18;;;;;;;;;;;17.30;99.90;;;;;;10292953;28;84959;-51
2022/06/09 20:59:18;;;;;;;;;;;17.30;99.90;;;;;;10286976;28;86651;-54
2022/06/09 21:04:19;;;;;;;;;;;17.20;99.90;;;;;;10286586;28;84200;-47
2022/06/09 21:09:20;;;;;;;;;;;17.10;99.90;;;;;;10286914;28;84357;-54
2022/06/09 21:19:41;;;;;;;;;;;16.90;99.90;;;;;;10293331;28;84346;-53
2022/06/09 21:24:42;;;;;;;;;;;16.80;99.90;;;;;;10296345;28;85202;-50
2022/06/09 21:29:43;;;;;;;;;;;16.80;99.90;;;;;;10286913;28;84241;-49
2022/06/09 21:34:44;;;;;;;;;;;16.80;99.90;;;;;;10292515;28;84031;-50
2022/06/09 21:39:45;;;;;;;;;;;16.80;99.90;;;;;;10292153;28;85241;-49
2022/06/09 21:44:46;;;;;;;;;;;16.70;99.90;;;;;;10289742;28;87041;-48
2022/06/09 21:49:46;;;;;;;;;;;16.70;99.90;;;;;;10291334;28;85324;-48
2022/06/09 21:54:47;;;;;;;;;;;16.60;99.90;;;;;;10275463;28;84921;-53
2022/06/09 21:59:47;;;;;;;;;;;16.50;99.90;;;;;;10273845;28;84037;-50
2022/06/09 22:04:48;;;;;;;;;;;16.50;99.90;;;;;;10288127;28;84696;-49
2022/06/09 22:09:49;;;;;;;;;;;16.40;99.90;;;;;;10289196;28;84787;-49
2022/06/09 22:14:49;;;;;;;;;;;16.40;99.90;;;;;;10289710;28;84945;-49
2022/06/09 22:19:50;;;;;;;;;;;16.30;99.90;;;;;;10289050;28;84859;-49
2022/06/09 22:24:50;;;;;;;;;;;16.40;99.90;;;;;;10279130;28;85238;-48
2022/06/09 22:29:51;;;;;;;;;;;16.30;99.90;;;;;;10249785;28;84205;-53
2022/06/09 22:34:51;;;;;;;;;;;16.30;99.90;;;;;;10250027;28;85160;-47
2022/06/09 22:39:52;;;;;;;;;;;16.20;99.90;;;;;;10250234;28;84220;-48
2022/06/09 22:44:53;;;;;;;;;;;16.20;99.90;;;;;;10251175;28;85199;-48
2022/06/09 22:49:53;;;;;;;;;;;16.10;99.90;;;;;;10249412;28;84099;-51
2022/06/09 23:00:15;;;;;;;;;;;15.90;99.90;;;;;;10251399;28;84159;-49
2022/06/09 23:05:16;;;;;;;;;;;15.80;99.90;;;;;;10247676;28;86103;-50
2022/06/09 23:10:18;;;;;;;;;;;15.70;99.90;;;;;;10247984;28;86198;-52
2022/06/09 23:15:18;;;;;;;;;;;15.60;99.90;;;;;;10270664;28;84134;-45
2022/06/09 23:20:21;;;;;;;;;;;15.50;99.90;;;;;;10289768;28;84898;-50
2022/06/09 23:25:21;;;;;;;;;;;15.50;99.90;;;;;;10288384;28;87641;-50
2022/06/09 23:30:23;;;;;;;;;;;15.40;99.90;;;;;;10273084;28;86818;-54
2022/06/09 23:35:25;;;;;;;;;;;15.40;99.90;;;;;;10247480;28;84982;-48
2022/06/09 23:40:28;;;;;;;;;;;15.30;99.90;;;;;;10282995;28;84171;-49
2022/06/09 23:45:32;;;;;;;;;;;15.30;99.90;;;;;;10285241;28;84304;-50
2022/06/09 23:50:37;;;;;;;;;;;15.20;99.90;;;;;;10284721;28;84830;-52
2022/06/09 23:55:40;;;;;;;;;;;15.10;99.90;;;;;;10288696;28;84171;-49
